No.21 Shinpuku Maru — JM6683 — position and weather

sailwx.info

Track history (hours):
 
Tides and Currents Weather Stations Pressure Air Temp Water Temp Dewpoint Dewpoint Depression Visibility Wind Speed Wind Dir Waves Ship Positions

No.21 Shinpuku Maru

Last reported at 2017-Nov-22 21:52 UTC. Time now 2017-Nov-24 03:33 UTC.
Position N 34°03' E 134°58'.

Length 76 m; draft 5 m.

Type: Cargo ship. MMSI: 431602058.

Date/timePositionNaut miles runAvg speedWind from/ knotsBaromVisibWave heightAir tempDewpointWater temp
2017-Nov-22 21:52N 34°03' E 134°58'513.2
2017-Nov-22 21:30N 34°07' E 135°01'713.4
2017-Nov-22 21:01N 34°13' E 135°05'2 4.8
2017-Nov-22 20:31N 34°14' E 135°08'0 0.0
2017-Nov-22 20:00N 34°14' E 135°08'0 0.0
2017-Nov-22 19:30N 34°14' E 135°08'  
2017-Nov-20 00:24N 34°04' E 134°58'512.9
2017-Nov-20 00:00N 34°09' E 135°01'613.0
2017-Nov-19 23:30N 34°14' E 135°05'3 5.0
2017-Nov-19 23:00N 34°14' E 135°08'0 0.0
2017-Nov-19 22:30N 34°14' E 135°08'0 0.0
2017-Nov-19 22:00N 34°14' E 135°08'0 0.0
2017-Nov-19 21:30N 34°14' E 135°08'0 0.0
2017-Nov-19 21:00N 34°14' E 135°08'0 0.0
2017-Nov-19 20:30N 34°14' E 135°08'0 0.0
2017-Nov-19 20:00N 34°14' E 135°08'0 0.0
2017-Nov-19 19:30N 34°14' E 135°08'0 0.0
2017-Nov-19 19:00N 34°14' E 135°08'0 0.0
2017-Nov-19 18:30N 34°14' E 135°08'0 0.0
2017-Nov-19 18:00N 34°14' E 135°08'0 0.0
2017-Nov-19 17:30N 34°14' E 135°08'0 0.0
2017-Nov-19 17:00N 34°14' E 135°08'0 0.0
2017-Nov-19 16:30N 34°14' E 135°08'0 0.0
2017-Nov-19 16:00N 34°14' E 135°08'0 0.0
2017-Nov-19 15:30N 34°14' E 135°08'0 0.0
2017-Nov-19 15:00N 34°14' E 135°08'0 0.0
2017-Nov-19 14:30N 34°14' E 135°08'0 0.3
2017-Nov-19 14:00N 34°14' E 135°08'4 7.1
2017-Nov-19 13:30N 34°12' E 135°04'611.9
2017-Nov-19 12:59N 34°06' E 135°01'4 0.1
2017-Nov-17 21:23N 34°03' E 134°58'513.1
2017-Nov-17 21:00N 34°08' E 135°01'612.9
2017-Nov-17 20:31N 34°13' E 135°04'3 5.2
2017-Nov-17 20:01N 34°14' E 135°08'0 0.0
2017-Nov-17 19:31N 34°14' E 135°08'0 0.0
2017-Nov-17 19:00N 34°14' E 135°08'0 0.0
2017-Nov-17 18:31N 34°14' E 135°08'0 0.0
2017-Nov-17 18:01N 34°14' E 135°08'0 0.0
2017-Nov-17 17:31N 34°14' E 135°08'0 0.0
2017-Nov-17 17:01N 34°14' E 135°08'0 0.0
2017-Nov-17 16:31N 34°14' E 135°08'0 0.0
2017-Nov-17 16:01N 34°14' E 135°08'0 0.0
2017-Nov-17 15:31N 34°14' E 135°08'0 0.0
2017-Nov-17 15:01N 34°14' E 135°08'0 0.0
2017-Nov-17 14:30N 34°14' E 135°08'0 0.0
2017-Nov-17 14:00N 34°14' E 135°08'0 0.0
2017-Nov-17 13:31N 34°14' E 135°08'0 0.0
2017-Nov-17 13:01N 34°14' E 135°08'0 0.0
2017-Nov-17 12:30N 34°14' E 135°08'0 0.0
2017-Nov-17 12:01N 34°14' E 135°08'0 0.0
2017-Nov-17 11:31N 34°14' E 135°08'0 0.0
2017-Nov-17 11:00N 34°14' E 135°08'0 0.0
2017-Nov-17 10:30N 34°14' E 135°08'0 0.0
2017-Nov-17 10:01N 34°14' E 135°08'0 0.0
2017-Nov-17 09:31N 34°14' E 135°08'0 0.0
2017-Nov-17 09:00N 34°14' E 135°08'0 0.0
2017-Nov-17 08:30N 34°14' E 135°08'0 0.0
2017-Nov-17 08:00N 34°14' E 135°08'0 0.0
2017-Nov-17 07:30N 34°14' E 135°08'0 0.0
2017-Nov-17 07:01N 34°14' E 135°08'0 0.0
2017-Nov-17 06:31N 34°14' E 135°08'0 0.0
2017-Nov-17 06:01N 34°14' E 135°08'0 0.0
2017-Nov-17 05:31N 34°14' E 135°08'0 0.0
2017-Nov-17 05:00N 34°14' E 135°08'0 0.0
2017-Nov-17 04:31N 34°14' E 135°08'0 0.0
2017-Nov-17 04:01N 34°14' E 135°08'0 0.0
2017-Nov-17 03:31N 34°14' E 135°08'1 2.6
2017-Nov-17 03:00N 34°14' E 135°06'1 1.6
2017-Nov-17 02:31N 34°15' E 135°05'0 0.0
2017-Nov-17 02:01N 34°15' E 135°05'0 0.0
2017-Nov-17 01:30N 34°15' E 135°05'0 0.0
2017-Nov-17 01:01N 34°15' E 135°05'0 0.1
2017-Nov-17 00:31N 34°15' E 135°05'0 0.0
2017-Nov-17 00:01N 34°15' E 135°05'0 0.0
2017-Nov-16 23:31N 34°15' E 135°05'0 0.0
2017-Nov-16 23:01N 34°15' E 135°05'0 0.0
2017-Nov-16 22:31N 34°15' E 135°05'0 0.0
2017-Nov-16 22:01N 34°15' E 135°05'0 0.0
2017-Nov-16 21:31N 34°15' E 135°05'0 0.0
2017-Nov-16 21:00N 34°15' E 135°05'0 0.0
2017-Nov-16 20:31N 34°15' E 135°05'0 0.0
2017-Nov-16 20:01N 34°15' E 135°05'0 0.0
2017-Nov-16 19:30N 34°15' E 135°05'0 0.0
2017-Nov-16 19:01N 34°15' E 135°05'0 0.0
2017-Nov-16 18:31N 34°15' E 135°05'0 0.0
2017-Nov-16 18:01N 34°15' E 135°05'0 0.0
2017-Nov-16 17:31N 34°15' E 135°05'0 0.0
2017-Nov-16 17:01N 34°15' E 135°05'0 0.0
2017-Nov-16 16:30N 34°15' E 135°05'0 0.0
2017-Nov-16 16:01N 34°15' E 135°05'0 0.0
2017-Nov-16 15:31N 34°15' E 135°05'0 0.1
2017-Nov-16 15:00N 34°15' E 135°05'0 0.1
2017-Nov-16 14:30N 34°15' E 135°06'0 0.1
2017-Nov-16 14:01N 34°15' E 135°05'0 0.0
2017-Nov-16 13:31N 34°15' E 135°05'0 0.0
2017-Nov-16 13:01N 34°15' E 135°05'0 0.0
2017-Nov-16 12:31N 34°15' E 135°05'0 0.1
2017-Nov-16 12:00N 34°15' E 135°06'0 0.0
2017-Nov-16 11:30N 34°15' E 135°06'0 0.0
2017-Nov-16 11:00N 34°15' E 135°06'0 0.0
2017-Nov-16 10:30N 34°15' E 135°06'0 0.0
2017-Nov-16 10:01N 34°15' E 135°06'0 0.0
2017-Nov-16 09:30N 34°15' E 135°06'0 0.0
2017-Nov-16 09:00N 34°15' E 135°06'0 0.0
2017-Nov-16 08:30N 34°15' E 135°06'0 0.0
2017-Nov-16 08:00N 34°15' E 135°06'0 0.0
2017-Nov-16 07:30N 34°15' E 135°06'0 0.0
2017-Nov-16 07:01N 34°15' E 135°06'0 0.0
2017-Nov-16 06:30N 34°15' E 135°06'0 0.0
2017-Nov-16 06:00N 34°15' E 135°06'1 1.3
2017-Nov-16 05:31N 34°14' E 135°05'611.8
2017-Nov-16 05:01N 34°09' E 135°02'611.8
2017-Nov-16 04:28N 34°03' E 134°59'1 0.0
2017-Nov-14 07:09N 34°04' E 134°59'213.2
2017-Nov-14 07:00N 34°06' E 135°00'613.2
2017-Nov-14 06:30N 34°12' E 135°03'4 8.9
2017-Nov-14 06:01N 34°14' E 135°08'0 0.0
2017-Nov-14 05:30N 34°14' E 135°08'0 0.0
2017-Nov-14 05:00N 34°14' E 135°08'0 0.0
2017-Nov-14 04:30N 34°14' E 135°08'0 0.0
2017-Nov-14 04:00N 34°14' E 135°08'0 0.0
2017-Nov-14 03:30N 34°14' E 135°08'0 0.0
2017-Nov-14 03:00N 34°14' E 135°08'0 0.0
2017-Nov-14 02:30N 34°14' E 135°08'0 0.0
2017-Nov-14 02:00N 34°14' E 135°08'0 0.0
2017-Nov-14 01:30N 34°14' E 135°08'0 0.0
2017-Nov-14 01:00N 34°14' E 135°08'0 0.0
2017-Nov-14 00:30N 34°14' E 135°08'0 0.0
2017-Nov-14 00:00N 34°14' E 135°08'0 0.0
2017-Nov-13 23:30N 34°14' E 135°08'0 0.0
2017-Nov-13 23:00N 34°14' E 135°08'0 0.0
2017-Nov-13 22:30N 34°14' E 135°08'0 0.0
2017-Nov-13 22:00N 34°14' E 135°08'  
Track history (hours):
 
Tides and Currents Weather Stations Pressure Air Temp Water Temp Dewpoint Dewpoint Depression Visibility Wind Speed Wind Dir Waves Ship Positions

No.21 Shinpuku Maru

Last reported at 2017-Nov-22 21:52 UTC. Time now 2017-Nov-24 03:33 UTC.
Position N 34°03' E 134°58'.

Length 76 m; draft 5 m.

Type: Cargo ship. MMSI: 431602058.

Date/timePositionNaut miles runAvg speedWind from/ knotsBaromVisibWave heightAir tempDewpointWater temp
2017-Nov-22 21:52N 34°03' E 134°58'513.2
2017-Nov-22 21:30N 34°07' E 135°01'713.4
2017-Nov-22 21:01N 34°13' E 135°05'2 4.8
2017-Nov-22 20:31N 34°14' E 135°08'0 0.0
2017-Nov-22 20:00N 34°14' E 135°08'0 0.0
2017-Nov-22 19:30N 34°14' E 135°08'  
2017-Nov-20 00:24N 34°04' E 134°58'512.9
2017-Nov-20 00:00N 34°09' E 135°01'613.0
2017-Nov-19 23:30N 34°14' E 135°05'3 5.0
2017-Nov-19 23:00N 34°14' E 135°08'0 0.0
2017-Nov-19 22:30N 34°14' E 135°08'0 0.0
2017-Nov-19 22:00N 34°14' E 135°08'0 0.0
2017-Nov-19 21:30N 34°14' E 135°08'0 0.0
2017-Nov-19 21:00N 34°14' E 135°08'0 0.0
2017-Nov-19 20:30N 34°14' E 135°08'0 0.0
2017-Nov-19 20:00N 34°14' E 135°08'0 0.0
2017-Nov-19 19:30N 34°14' E 135°08'0 0.0
2017-Nov-19 19:00N 34°14' E 135°08'0 0.0
2017-Nov-19 18:30N 34°14' E 135°08'0 0.0
2017-Nov-19 18:00N 34°14' E 135°08'0 0.0
2017-Nov-19 17:30N 34°14' E 135°08'0 0.0
2017-Nov-19 17:00N 34°14' E 135°08'0 0.0
2017-Nov-19 16:30N 34°14' E 135°08'0 0.0
2017-Nov-19 16:00N 34°14' E 135°08'0 0.0
2017-Nov-19 15:30N 34°14' E 135°08'0 0.0
2017-Nov-19 15:00N 34°14' E 135°08'0 0.0
2017-Nov-19 14:30N 34°14' E 135°08'0 0.3
2017-Nov-19 14:00N 34°14' E 135°08'4 7.1
2017-Nov-19 13:30N 34°12' E 135°04'611.9
2017-Nov-19 12:59N 34°06' E 135°01'4 0.1
2017-Nov-17 21:23N 34°03' E 134°58'513.1
2017-Nov-17 21:00N 34°08' E 135°01'612.9
2017-Nov-17 20:31N 34°13' E 135°04'3 5.2
2017-Nov-17 20:01N 34°14' E 135°08'0 0.0
2017-Nov-17 19:31N 34°14' E 135°08'0 0.0
2017-Nov-17 19:00N 34°14' E 135°08'0 0.0
2017-Nov-17 18:31N 34°14' E 135°08'0 0.0
2017-Nov-17 18:01N 34°14' E 135°08'0 0.0
2017-Nov-17 17:31N 34°14' E 135°08'0 0.0
2017-Nov-17 17:01N 34°14' E 135°08'0 0.0
2017-Nov-17 16:31N 34°14' E 135°08'0 0.0
2017-Nov-17 16:01N 34°14' E 135°08'0 0.0
2017-Nov-17 15:31N 34°14' E 135°08'0 0.0
2017-Nov-17 15:01N 34°14' E 135°08'0 0.0
2017-Nov-17 14:30N 34°14' E 135°08'0 0.0
2017-Nov-17 14:00N 34°14' E 135°08'0 0.0
2017-Nov-17 13:31N 34°14' E 135°08'0 0.0
2017-Nov-17 13:01N 34°14' E 135°08'0 0.0
2017-Nov-17 12:30N 34°14' E 135°08'0 0.0
2017-Nov-17 12:01N 34°14' E 135°08'0 0.0
2017-Nov-17 11:31N 34°14' E 135°08'0 0.0
2017-Nov-17 11:00N 34°14' E 135°08'0 0.0
2017-Nov-17 10:30N 34°14' E 135°08'0 0.0
2017-Nov-17 10:01N 34°14' E 135°08'0 0.0
2017-Nov-17 09:31N 34°14' E 135°08'0 0.0
2017-Nov-17 09:00N 34°14' E 135°08'0 0.0
2017-Nov-17 08:30N 34°14' E 135°08'0 0.0
2017-Nov-17 08:00N 34°14' E 135°08'0 0.0
2017-Nov-17 07:30N 34°14' E 135°08'0 0.0
2017-Nov-17 07:01N 34°14' E 135°08'0 0.0
2017-Nov-17 06:31N 34°14' E 135°08'0 0.0
2017-Nov-17 06:01N 34°14' E 135°08'0 0.0
2017-Nov-17 05:31N 34°14' E 135°08'0 0.0
2017-Nov-17 05:00N 34°14' E 135°08'0 0.0
2017-Nov-17 04:31N 34°14' E 135°08'0 0.0
2017-Nov-17 04:01N 34°14' E 135°08'0 0.0
2017-Nov-17 03:31N 34°14' E 135°08'1 2.6
2017-Nov-17 03:00N 34°14' E 135°06'1 1.6
2017-Nov-17 02:31N 34°15' E 135°05'0 0.0
2017-Nov-17 02:01N 34°15' E 135°05'0 0.0
2017-Nov-17 01:30N 34°15' E 135°05'0 0.0
2017-Nov-17 01:01N 34°15' E 135°05'0 0.1
2017-Nov-17 00:31N 34°15' E 135°05'0 0.0
2017-Nov-17 00:01N 34°15' E 135°05'0 0.0
2017-Nov-16 23:31N 34°15' E 135°05'0 0.0
2017-Nov-16 23:01N 34°15' E 135°05'0 0.0
2017-Nov-16 22:31N 34°15' E 135°05'0 0.0
2017-Nov-16 22:01N 34°15' E 135°05'0 0.0
2017-Nov-16 21:31N 34°15' E 135°05'0 0.0
2017-Nov-16 21:00N 34°15' E 135°05'0 0.0
2017-Nov-16 20:31N 34°15' E 135°05'0 0.0
2017-Nov-16 20:01N 34°15' E 135°05'0 0.0
2017-Nov-16 19:30N 34°15' E 135°05'0 0.0
2017-Nov-16 19:01N 34°15' E 135°05'0 0.0
2017-Nov-16 18:31N 34°15' E 135°05'0 0.0
2017-Nov-16 18:01N 34°15' E 135°05'0 0.0
2017-Nov-16 17:31N 34°15' E 135°05'0 0.0
2017-Nov-16 17:01N 34°15' E 135°05'0 0.0
2017-Nov-16 16:30N 34°15' E 135°05'0 0.0
2017-Nov-16 16:01N 34°15' E 135°05'0 0.0
2017-Nov-16 15:31N 34°15' E 135°05'0 0.1
2017-Nov-16 15:00N 34°15' E 135°05'0 0.1
2017-Nov-16 14:30N 34°15' E 135°06'0 0.1
2017-Nov-16 14:01N 34°15' E 135°05'0 0.0
2017-Nov-16 13:31N 34°15' E 135°05'0 0.0
2017-Nov-16 13:01N 34°15' E 135°05'0 0.0
2017-Nov-16 12:31N 34°15' E 135°05'0 0.1
2017-Nov-16 12:00N 34°15' E 135°06'0 0.0
2017-Nov-16 11:30N 34°15' E 135°06'0 0.0
2017-Nov-16 11:00N 34°15' E 135°06'0 0.0
2017-Nov-16 10:30N 34°15' E 135°06'0 0.0
2017-Nov-16 10:01N 34°15' E 135°06'0 0.0
2017-Nov-16 09:30N 34°15' E 135°06'0 0.0
2017-Nov-16 09:00N 34°15' E 135°06'0 0.0
2017-Nov-16 08:30N 34°15' E 135°06'0 0.0
2017-Nov-16 08:00N 34°15' E 135°06'0 0.0
2017-Nov-16 07:30N 34°15' E 135°06'0 0.0
2017-Nov-16 07:01N 34°15' E 135°06'0 0.0
2017-Nov-16 06:30N 34°15' E 135°06'0 0.0
2017-Nov-16 06:00N 34°15' E 135°06'1 1.3
2017-Nov-16 05:31N 34°14' E 135°05'611.8
2017-Nov-16 05:01N 34°09' E 135°02'611.8
2017-Nov-16 04:28N 34°03' E 134°59'1 0.0
2017-Nov-14 07:09N 34°04' E 134°59'213.2
2017-Nov-14 07:00N 34°06' E 135°00'613.2
2017-Nov-14 06:30N 34°12' E 135°03'4 8.9
2017-Nov-14 06:01N 34°14' E 135°08'0 0.0
2017-Nov-14 05:30N 34°14' E 135°08'0 0.0
2017-Nov-14 05:00N 34°14' E 135°08'0 0.0
2017-Nov-14 04:30N 34°14' E 135°08'0 0.0
2017-Nov-14 04:00N 34°14' E 135°08'0 0.0
2017-Nov-14 03:30N 34°14' E 135°08'0 0.0
2017-Nov-14 03:00N 34°14' E 135°08'0 0.0
2017-Nov-14 02:30N 34°14' E 135°08'0 0.0
2017-Nov-14 02:00N 34°14' E 135°08'0 0.0
2017-Nov-14 01:30N 34°14' E 135°08'0 0.0
2017-Nov-14 01:00N 34°14' E 135°08'0 0.0
2017-Nov-14 00:30N 34°14' E 135°08'0 0.0
2017-Nov-14 00:00N 34°14' E 135°08'0 0.0
2017-Nov-13 23:30N 34°14' E 135°08'0 0.0
2017-Nov-13 23:00N 34°14' E 135°08'0 0.0
2017-Nov-13 22:30N 34°14' E 135°08'0 0.0
2017-Nov-13 22:00N 34°14' E 135°08'  

Dump ship's entire track history